sensor_id;sensor_type;location;lat;lon;timestamp;temperature;humidity
43862;DHT22;29510;52.140;5.034;2023-08-07T00:01:31;14.00;99.90
43862;DHT22;29510;52.140;5.034;2023-08-07T00:11:32;14.00;99.90
43862;DHT22;29510;52.140;5.034;2023-08-07T00:21:32;14.10;95.40
43862;DHT22;29510;52.140;5.034;2023-08-07T00:31:35;14.30;41.80
43862;DHT22;29510;52.140;5.034;2023-08-07T00:41:36;14.30;23.10
43862;DHT22;29510;52.140;5.034;2023-08-07T00:51:37;14.40;26.00
43862;DHT22;29510;52.140;5.034;2023-08-07T01:01:38;14.20;25.70
43862;DHT22;29510;52.140;5.034;2023-08-07T01:11:41;14.20;40.60
43862;DHT22;29510;52.140;5.034;2023-08-07T01:21:47;14.10;30.60
43862;DHT22;29510;52.140;5.034;2023-08-07T01:31:49;14.20;24.50
43862;DHT22;29510;52.140;5.034;2023-08-07T01:41:51;14.30;34.70
43862;DHT22;29510;52.140;5.034;2023-08-07T01:51:52;14.10;47.10
43862;DHT22;29510;52.140;5.034;2023-08-07T02:01:53;14.00;40.90
43862;DHT22;29510;52.140;5.034;2023-08-07T02:11:53;14.20;30.70
43862;DHT22;29510;52.140;5.034;2023-08-07T02:21:54;14.20;32.60
43862;DHT22;29510;52.140;5.034;2023-08-07T02:31:54;14.20;46.20
43862;DHT22;29510;52.140;5.034;2023-08-07T02:41:55;14.30;39.80
43862;DHT22;29510;52.140;5.034;2023-08-07T02:51:55;14.50;14.70
43862;DHT22;29510;52.140;5.034;2023-08-07T03:01:56;14.50;14.60
43862;DHT22;29510;52.140;5.034;2023-08-07T03:11:57;14.40;21.10
43862;DHT22;29510;52.140;5.034;2023-08-07T03:22:03;14.20;43.30
43862;DHT22;29510;52.140;5.034;2023-08-07T03:32:04;14.10;91.60
43862;DHT22;29510;52.140;5.034;2023-08-07T03:42:05;13.80;99.90
43862;DHT22;29510;52.140;5.034;2023-08-07T03:52:06;13.80;99.90
43862;DHT22;29510;52.140;5.034;2023-08-07T04:02:06;13.80;99.90
43862;DHT22;29510;52.140;5.034;2023-08-07T04:12:07;13.80;99.90
43862;DHT22;29510;52.140;5.034;2023-08-07T04:22:08;13.80;99.90
43862;DHT22;29510;52.140;5.034;2023-08-07T04:32:08;13.80;99.90
43862;DHT22;29510;52.140;5.034;2023-08-07T04:42:09;13.70;99.90
43862;DHT22;29510;52.140;5.034;2023-08-07T04:52:09;13.80;99.90
43862;DHT22;29510;52.140;5.034;2023-08-07T05:02:10;13.90;99.90
43862;DHT22;29510;52.140;5.034;2023-08-07T05:12:10;13.90;99.90
43862;DHT22;29510;52.140;5.034;2023-08-07T05:22:11;13.90;99.90
43862;DHT22;29510;52.140;5.034;2023-08-07T05:32:13;14.20;99.90
43862;DHT22;29510;52.140;5.034;2023-08-07T05:42:14;14.20;99.90
43862;DHT22;29510;52.140;5.034;2023-08-07T05:52:15;14.10;99.90
43862;DHT22;29510;52.140;5.034;2023-08-07T06:02:16;14.30;99.90
43862;DHT22;29510;52.140;5.034;2023-08-07T06:12:16;14.60;94.60
43862;DHT22;29510;52.140;5.034;2023-08-07T06:22:17;14.50;74.40
43862;DHT22;29510;52.140;5.034;2023-08-07T06:32:17;14.40;59.00
43862;DHT22;29510;52.140;5.034;2023-08-07T06:42:18;14.80;78.10
43862;DHT22;29510;52.140;5.034;2023-08-07T06:52:19;15.30;19.50
43862;DHT22;29510;52.140;5.034;2023-08-07T07:02:19;15.40;1.00
43862;DHT22;29510;52.140;5.034;2023-08-07T07:12:20;15.20;6.20
43862;DHT22;29510;52.140;5.034;2023-08-07T07:22:20;15.00;5.30
43862;DHT22;29510;52.140;5.034;2023-08-07T07:32:21;15.00;10.10
43862;DHT22;29510;52.140;5.034;2023-08-07T07:42:21;15.20;20.80
43862;DHT22;29510;52.140;5.034;2023-08-07T07:52:22;15.40;1.00
43862;DHT22;29510;52.140;5.034;2023-08-07T08:02:22;15.70;1.00
43862;DHT22;29510;52.140;5.034;2023-08-07T08:12:26;15.90;1.00
43862;DHT22;29510;52.140;5.034;2023-08-07T08:22:27;16.10;1.00
43862;DHT22;29510;52.140;5.034;2023-08-07T08:32:27;16.30;1.00
43862;DHT22;29510;52.140;5.034;2023-08-07T08:42:28;16.50;1.00
43862;DHT22;29510;52.140;5.034;2023-08-07T08:52:31;16.50;1.00
43862;DHT22;29510;52.140;5.034;2023-08-07T09:02:33;16.60;1.00
43862;DHT22;29510;52.140;5.034;2023-08-07T09:12:34;16.60;1.00
43862;DHT22;29510;52.140;5.034;2023-08-07T09:22:39;16.40;1.00
43862;DHT22;29510;52.140;5.034;2023-08-07T09:32:41;16.20;1.00
43862;DHT22;29510;52.140;5.034;2023-08-07T09:42:41;16.80;1.00
43862;DHT22;29510;52.140;5.034;2023-08-07T09:52:46;17.40;1.00
43862;DHT22;29510;52.140;5.034;2023-08-07T10:02:48;17.10;1.00
43862;DHT22;29510;52.140;5.034;2023-08-07T10:12:49;16.60;1.00
43862;DHT22;29510;52.140;5.034;2023-08-07T10:22:51;16.80;1.00
43862;DHT22;29510;52.140;5.034;2023-08-07T10:32:52;17.30;1.00
43862;DHT22;29510;52.140;5.034;2023-08-07T10:43:13;17.50;1.00
43862;DHT22;29510;52.140;5.034;2023-08-07T10:53:21;17.50;1.00
43862;DHT22;29510;52.140;5.034;2023-08-07T11:03:28;17.60;1.00
43862;DHT22;29510;52.140;5.034;2023-08-07T11:13:29;17.40;1.00
43862;DHT22;29510;52.140;5.034;2023-08-07T11:23:30;17.70;1.00
43862;DHT22;29510;52.140;5.034;2023-08-07T11:33:30;17.70;1.00
43862;DHT22;29510;52.140;5.034;2023-08-07T11:43:32;18.20;1.00
43862;DHT22;29510;52.140;5.034;2023-08-07T11:53:37;18.80;1.00
43862;DHT22;29510;52.140;5.034;2023-08-07T12:03:41;18.80;1.00
43862;DHT22;29510;52.140;5.034;2023-08-07T12:13:43;18.20;1.00
43862;DHT22;29510;52.140;5.034;2023-08-07T12:23:45;17.90;1.00
43862;DHT22;29510;52.140;5.034;2023-08-07T12:33:49;18.50;1.00
43862;DHT22;29510;52.140;5.034;2023-08-07T12:43:49;18.70;1.00
43862;DHT22;29510;52.140;5.034;2023-08-07T12:53:50;18.30;1.00
43862;DHT22;29510;52.140;5.034;2023-08-07T13:03:51;18.50;1.00
43862;DHT22;29510;52.140;5.034;2023-08-07T13:13:52;19.20;1.00
43862;DHT22;29510;52.140;5.034;2023-08-07T13:23:53;20.10;1.00
43862;DHT22;29510;52.140;5.034;2023-08-07T13:33:53;20.40;1.00
43862;DHT22;29510;52.140;5.034;2023-08-07T13:43:54;20.40;1.00
43862;DHT22;29510;52.140;5.034;2023-08-07T13:53:54;20.30;1.00
43862;DHT22;29510;52.140;5.034;2023-08-07T14:03:55;20.10;1.00
43862;DHT22;29510;52.140;5.034;2023-08-07T14:13:57;20.30;1.00
43862;DHT22;29510;52.140;5.034;2023-08-07T14:23:57;20.20;1.00
43862;DHT22;29510;52.140;5.034;2023-08-07T14:33:58;19.70;1.00
43862;DHT22;29510;52.140;5.034;2023-08-07T14:43:58;20.00;1.00
43862;DHT22;29510;52.140;5.034;2023-08-07T14:53:59;19.70;1.00
43862;DHT22;29510;52.140;5.034;2023-08-07T15:04:00;19.20;1.00
43862;DHT22;29510;52.140;5.034;2023-08-07T15:14:01;19.10;1.00
43862;DHT22;29510;52.140;5.034;2023-08-07T15:24:04;19.60;1.00
43862;DHT22;29510;52.140;5.034;2023-08-07T15:34:05;19.10;1.00
43862;DHT22;29510;52.140;5.034;2023-08-07T15:44:06;18.60;1.00
43862;DHT22;29510;52.140;5.034;2023-08-07T15:54:06;18.40;1.00
43862;DHT22;29510;52.140;5.034;2023-08-07T16:04:08;18.30;1.00
43862;DHT22;29510;52.140;5.034;2023-08-07T16:14:09;18.10;1.00
43862;DHT22;29510;52.140;5.034;2023-08-07T16:24:10;17.90;1.00
43862;DHT22;29510;52.140;5.034;2023-08-07T16:34:11;16.60;1.00
43862;DHT22;29510;52.140;5.034;2023-08-07T16:44:11;15.80;18.80
43862;DHT22;29510;52.140;5.034;2023-08-07T16:54:12;15.70;73.40
43862;DHT22;29510;52.140;5.034;2023-08-07T17:04:13;15.60;99.90
43862;DHT22;29510;52.140;5.034;2023-08-07T17:14:13;15.70;60.60
43862;DHT22;29510;52.140;5.034;2023-08-07T17:24:14;15.90;17.50
43862;DHT22;29510;52.140;5.034;2023-08-07T17:34:15;15.90;1.00
43862;DHT22;29510;52.140;5.034;2023-08-07T17:44:15;15.90;1.00
43862;DHT22;29510;52.140;5.034;2023-08-07T17:54:17;15.90;1.00
43862;DHT22;29510;52.140;5.034;2023-08-07T18:04:17;15.90;1.00
43862;DHT22;29510;52.140;5.034;2023-08-07T18:14:18;15.80;1.00
43862;DHT22;29510;52.140;5.034;2023-08-07T18:24:19;15.80;1.00
43862;DHT22;29510;52.140;5.034;2023-08-07T18:34:19;15.70;1.00
43862;DHT22;29510;52.140;5.034;2023-08-07T18:44:20;15.70;1.00
43862;DHT22;29510;52.140;5.034;2023-08-07T18:54:20;15.60;1.00
43862;DHT22;29510;52.140;5.034;2023-08-07T19:04:21;15.60;1.00
43862;DHT22;29510;52.140;5.034;2023-08-07T19:14:22;15.40;1.00
43862;DHT22;29510;52.140;5.034;2023-08-07T19:24:23;15.20;1.00
43862;DHT22;29510;52.140;5.034;2023-08-07T19:34:23;15.00;1.00
43862;DHT22;29510;52.140;5.034;2023-08-07T19:44:25;14.90;1.00
43862;DHT22;29510;52.140;5.034;2023-08-07T19:54:25;14.80;3.60
43862;DHT22;29510;52.140;5.034;2023-08-07T20:04:26;14.80;3.10
43862;DHT22;29510;52.140;5.034;2023-08-07T20:14:27;14.70;12.80
43862;DHT22;29510;52.140;5.034;2023-08-07T20:24:27;14.50;58.00
43862;DHT22;29510;52.140;5.034;2023-08-07T20:34:28;14.50;92.40
43862;DHT22;29510;52.140;5.034;2023-08-07T20:44:29;14.50;99.90
43862;DHT22;29510;52.140;5.034;2023-08-07T20:54:29;14.60;99.90
43862;DHT22;29510;52.140;5.034;2023-08-07T21:04:30;14.70;99.90
43862;DHT22;29510;52.140;5.034;2023-08-07T21:14:31;14.90;99.90
43862;DHT22;29510;52.140;5.034;2023-08-07T21:24:32;14.90;99.90
43862;DHT22;29510;52.140;5.034;2023-08-07T21:34:32;14.90;99.90
43862;DHT22;29510;52.140;5.034;2023-08-07T21:44:33;14.80;99.90
43862;DHT22;29510;52.140;5.034;2023-08-07T21:54:33;14.80;99.90
43862;DHT22;29510;52.140;5.034;2023-08-07T22:04:35;14.80;99.90
43862;DHT22;29510;52.140;5.034;2023-08-07T22:14:35;14.70;99.90
43862;DHT22;29510;52.140;5.034;2023-08-07T22:24:36;14.70;99.90
43862;DHT22;29510;52.140;5.034;2023-08-07T22:34:36;14.70;99.90
43862;DHT22;29510;52.140;5.034;2023-08-07T22:44:37;14.80;99.90
43862;DHT22;29510;52.140;5.034;2023-08-07T22:54:37;14.80;99.90
43862;DHT22;29510;52.140;5.034;2023-08-07T23:04:38;14.90;99.90
43862;DHT22;29510;52.140;5.034;2023-08-07T23:14:39;14.90;99.90
43862;DHT22;29510;52.140;5.034;2023-08-07T23:24:39;15.10;99.90
43862;DHT22;29510;52.140;5.034;2023-08-07T23:34:40;15.10;99.90
43862;DHT22;29510;52.140;5.034;2023-08-07T23:44:40;15.30;99.90
43862;DHT22;29510;52.140;5.034;2023-08-07T23:54:41;15.40;99.90
